Huvudsida
METAR-TAF:

METAR-TAF

Flygplatser :

Perugia, Italien

latitud: 43-05N, longitud: 012-30E, höjd: 208 m

Aktuellt väderrapport

Denna rapport gjordes för 20 minuter sedan, klockan 07:50 UTC
Vind 3 kt varierande vindriktning
Temperatur 3°C
Fuktighet 100%
Tryck 1001 hPa
Mulet på en höjd av 2900 ft

METAR: LIRZ 250750Z AUTO VRB03KT //// // OVC029 03/03 Q1001

Tid: 09:10 (08:10 UTC)

Väderprognos

Denna rapport gjordes för 3 timmar och 10 minuter sedan, klockan 05:00 UTC
Prognos gäller från 25 kl. 06 UTC till 26 kl. 06 UTC
Vind 6 kt varierande vindriktning
Sikt 10 km eller mer
Spridda moln på en höjd av 3000 ft
Temporärt
från 25 kl. 06 UTC till 25 kl. 12 UTC
Sikt: 4000 m
regnskurar
Blir
från 25 kl. 08 UTC till 25 kl. 10 UTC
Vind 12 kt från syd/sydväst
Blir
från 25 kl. 17 UTC till 25 kl. 19 UTC
Vind 5 kt varierande vindriktning

TAF: LIRZ 250500Z 2506/2606 VRB06KT 9999 SCT030 TEMPO 2506/2512 4000 SHRA BECMG 2508/2510 21012KT BECMG 2517/2519 VRB05KT

Aktuella väderrapporter och prognoser från 4000 flygplatser (METAR- och TAF-rapporter).

De tillgängliga stationerna syns som gula och röda prickar på kartan.

För musen över prickarna för att se namnen på stationerna.

Klicka sedan för att få väderrapporter och prognoser.

För att ändra kartan: Klicka på de gröna knapparna med ett svart kors på för att zooma in; den gröna knappen med ett streck på för att zooma ut; eller på de gröna pilarna för angränsande kartor.


METAR-TAF: